createdAt,value
2022-09-15T00:02:23.358Z,5.72
2022-09-15T00:04:55.878Z,6.05
2022-09-15T00:07:28.382Z,5.15
2022-09-15T00:10:00.823Z,5.75
2022-09-15T00:12:34.135Z,6.50
2022-09-15T00:15:06.887Z,5.50
2022-09-15T00:17:39.306Z,5.50
2022-09-15T00:20:11.783Z,5.75
2022-09-15T00:22:44.303Z,5.63
2022-09-15T00:25:16.848Z,5.68
2022-09-15T00:27:49.580Z,5.80
2022-09-15T00:30:22.001Z,5.88
2022-09-15T00:32:54.408Z,5.68
2022-09-15T00:35:26.857Z,6.05
2022-09-15T00:37:59.223Z,5.55
2022-09-15T00:40:31.687Z,5.57
2022-09-15T00:43:09.987Z,6.10
2022-09-15T00:45:42.426Z,6.03
2022-09-15T00:48:20.635Z,5.95
2022-09-15T00:50:57.017Z,6.18
2022-09-15T00:53:31.718Z,6.18
2022-09-15T00:56:04.888Z,5.65
2022-09-15T00:58:45.070Z,6.32
2022-09-15T01:01:17.659Z,5.60
2022-09-15T01:03:50.456Z,6.50
2022-09-15T01:06:42.774Z,6.35
2022-09-15T01:09:53.613Z,6.30
2022-09-15T01:12:27.334Z,6.35
2022-09-15T01:15:03.048Z,6.18
2022-09-15T01:20:45.138Z,5.95
2022-09-15T01:23:55.369Z,6.32
2022-09-15T01:26:43.916Z,7.28
2022-09-15T01:29:51.911Z,6.63
2022-09-15T01:33:04.585Z,6.70
2022-09-15T01:35:52.372Z,6.25
2022-09-15T01:38:29.705Z,7.15
2022-09-15T01:41:33.143Z,6.35
2022-09-15T01:44:12.813Z,5.90
2022-09-15T01:46:54.228Z,6.20
2022-09-15T01:49:30.731Z,7.45
2022-09-15T01:52:03.423Z,6.20
2022-09-15T01:54:44.255Z,5.80
2022-09-15T01:57:21.213Z,6.72
2022-09-15T01:59:55.826Z,6.53
2022-09-15T02:02:48.153Z,6.32
2022-09-15T02:05:45.254Z,6.47
2022-09-15T02:08:29.585Z,5.85
2022-09-15T02:11:13.788Z,6.75
2022-09-15T02:13:58.401Z,7.15
2022-09-15T02:16:35.270Z,6.63
2022-09-15T02:19:36.249Z,6.60
2022-09-15T02:22:31.037Z,6.95
2022-09-15T02:25:14.560Z,7.13
2022-09-15T02:27:51.221Z,6.80
2022-09-15T02:30:24.198Z,5.95
2022-09-15T02:33:00.089Z,6.57
2022-09-15T02:35:35.937Z,6.57
2022-09-15T02:38:10.935Z,7.03
2022-09-15T02:40:44.750Z,7.93
2022-09-15T02:43:18.013Z,7.03
2022-09-15T02:45:50.723Z,7.93
2022-09-15T02:48:25.224Z,7.90
2022-09-15T02:50:57.590Z,7.20
2022-09-15T02:53:30.005Z,6.60
2022-09-15T02:56:05.968Z,6.90
2022-09-15T02:58:38.440Z,7.03
2022-09-15T03:01:14.979Z,7.22
2022-09-15T03:03:47.540Z,7.20
2022-09-15T03:06:21.283Z,7.28
2022-09-15T03:08:56.506Z,7.93
2022-09-15T03:11:29.873Z,7.47
2022-09-15T03:14:05.930Z,7.65
2022-09-15T03:16:38.340Z,7.63
2022-09-15T03:19:10.889Z,8.10
2022-09-15T03:21:43.317Z,8.40
2022-09-15T03:24:15.784Z,7.72
2022-09-15T03:26:48.516Z,8.18
2022-09-15T03:29:20.960Z,7.40
2022-09-15T03:31:54.042Z,8.50
2022-09-15T03:34:26.717Z,8.13
2022-09-15T03:36:59.119Z,7.88
2022-09-15T03:39:31.454Z,8.30
2022-09-15T03:42:04.524Z,7.53
2022-09-15T03:44:36.972Z,8.48
2022-09-15T03:47:09.594Z,7.78
2022-09-15T03:49:42.025Z,8.27
2022-09-15T03:52:14.444Z,7.85
2022-09-15T03:54:48.700Z,8.05
2022-09-15T03:57:21.146Z,7.53
2022-09-15T03:59:53.560Z,8.32
2022-09-15T04:02:26.036Z,8.38
2022-09-15T04:04:58.851Z,8.77
2022-09-15T04:07:31.292Z,8.35
2022-09-15T04:10:04.605Z,7.97
2022-09-15T04:12:37.051Z,8.50
2022-09-15T04:15:09.996Z,7.78
2022-09-15T04:17:42.465Z,7.78
2022-09-15T04:20:15.187Z,7.40
2022-09-15T04:22:47.673Z,7.80
2022-09-15T04:25:20.094Z,8.00
2022-09-15T04:27:52.822Z,8.60
2022-09-15T04:30:25.369Z,7.30
2022-09-15T04:32:57.825Z,7.45
2022-09-15T04:35:30.213Z,7.38
2022-09-15T04:38:02.988Z,7.07
2022-09-15T04:40:35.441Z,8.07
2022-09-15T04:43:08.086Z,7.93
2022-09-15T04:45:40.965Z,8.32
2022-09-15T04:48:13.388Z,7.60
2022-09-15T04:50:45.781Z,7.80
2022-09-15T04:53:18.357Z,7.75
2022-09-15T04:55:50.740Z,7.95
2022-09-15T04:58:23.144Z,7.72
2022-09-15T05:00:55.575Z,7.82
2022-09-15T05:03:28.067Z,7.57
2022-09-15T05:06:00.588Z,7.35
2022-09-15T05:08:33.097Z,7.22
2022-09-15T05:11:11.408Z,7.32
2022-09-15T05:13:43.922Z,7.00
2022-09-15T05:16:19.357Z,7.45
2022-09-15T05:18:56.659Z,7.55
2022-09-15T05:21:29.264Z,6.95
2022-09-15T05:24:02.009Z,7.43
2022-09-15T05:26:34.437Z,6.80
2022-09-15T05:29:06.900Z,6.95
2022-09-15T05:31:39.387Z,7.00
2022-09-15T05:34:11.929Z,7.00
2022-09-15T05:36:44.325Z,7.43
2022-09-15T05:39:17.116Z,6.90
2022-09-15T05:41:49.555Z,7.10
2022-09-15T05:44:21.930Z,7.30
2022-09-15T05:46:54.378Z,7.38
2022-09-15T05:49:28.534Z,7.38
2022-09-15T05:52:01.160Z,7.25
2022-09-15T05:54:33.578Z,6.47
2022-09-15T05:57:05.950Z,7.20
2022-09-15T05:59:39.227Z,7.70
2022-09-15T06:02:11.815Z,6.40
2022-09-15T06:04:44.341Z,6.90
2022-09-15T06:07:16.976Z,6.80
2022-09-15T06:09:49.808Z,6.60
2022-09-15T06:12:22.209Z,7.22
2022-09-15T06:14:54.605Z,6.60
2022-09-15T06:17:27.241Z,6.82
2022-09-15T06:19:59.715Z,7.10
2022-09-15T06:22:32.890Z,7.07
2022-09-15T06:25:06.533Z,6.97
2022-09-15T06:27:42.238Z,7.85
2022-09-15T06:32:48.462Z,7.10
2022-09-15T06:35:21.016Z,7.82
2022-09-15T06:37:53.377Z,7.68
2022-09-15T06:40:25.840Z,7.40
2022-09-15T06:42:58.331Z,7.68
2022-09-15T06:45:30.997Z,7.15
2022-09-15T06:48:23.495Z,7.43
2022-09-15T06:50:55.957Z,6.82
2022-09-15T06:53:30.080Z,6.80
2022-09-15T06:56:13.851Z,7.75
2022-09-15T06:58:49.214Z,6.97
2022-09-15T07:01:28.090Z,6.28
2022-09-15T07:04:01.799Z,6.68
2022-09-15T07:06:34.811Z,6.85
2022-09-15T07:09:07.313Z,6.50
2022-09-15T07:11:40.388Z,6.97
2022-09-15T07:14:12.830Z,7.15
2022-09-15T07:16:45.281Z,5.88
2022-09-15T07:19:17.803Z,6.30
2022-09-15T07:21:52.683Z,6.57
2022-09-15T07:24:25.148Z,6.13
2022-09-15T07:26:57.550Z,7.32
2022-09-15T07:29:29.952Z,6.70
2022-09-15T07:32:02.511Z,6.13
2022-09-15T07:34:35.012Z,6.15
2022-09-15T07:37:07.433Z,6.00
2022-09-15T07:39:39.834Z,6.22
2022-09-15T07:42:12.281Z,5.10
2022-09-15T07:44:44.636Z,5.20
2022-09-15T07:47:17.131Z,5.57
2022-09-15T07:49:50.290Z,5.88
2022-09-15T07:52:22.695Z,6.13
2022-09-15T07:54:55.096Z,6.25
2022-09-15T07:57:27.534Z,5.43
2022-09-15T07:59:59.978Z,5.50
2022-09-15T08:02:32.460Z,5.10
2022-09-15T08:05:05.137Z,4.65
2022-09-15T08:07:37.557Z,5.30
2022-09-15T08:10:10.186Z,5.15
2022-09-15T08:12:42.606Z,4.50
2022-09-15T08:15:15.219Z,4.53
2022-09-15T08:17:47.669Z,5.15
2022-09-15T08:20:20.755Z,4.60
2022-09-15T08:22:53.178Z,4.97
2022-09-15T08:25:25.801Z,4.63
2022-09-15T08:27:59.517Z,4.53
2022-09-15T08:30:32.179Z,5.20
2022-09-15T08:33:04.558Z,5.55
2022-09-15T08:35:37.341Z,4.53
2022-09-15T08:38:09.778Z,4.80
2022-09-15T08:40:45.554Z,4.53
2022-09-15T08:43:23.670Z,5.25
2022-09-15T08:46:03.837Z,5.30
2022-09-15T08:48:43.700Z,4.20
2022-09-15T08:51:23.188Z,4.50
2022-09-15T08:54:06.083Z,4.30
2022-09-15T08:56:41.293Z,4.22
2022-09-15T08:59:16.118Z,4.00
2022-09-15T09:01:51.623Z,3.92
2022-09-15T09:07:37.002Z,4.07
2022-09-15T09:10:19.198Z,4.15
2022-09-15T09:13:09.181Z,3.75
2022-09-15T09:16:03.861Z,3.97
2022-09-15T09:18:46.942Z,3.75
2022-09-15T09:21:26.599Z,3.92
2022-09-15T09:24:16.996Z,3.28
2022-09-15T09:26:54.217Z,3.15
2022-09-15T09:29:34.665Z,3.05
2022-09-15T09:32:36.996Z,3.30
2022-09-15T09:35:24.865Z,3.63
2022-09-15T09:37:57.549Z,3.13
2022-09-15T09:40:31.570Z,2.85
2022-09-15T09:43:04.049Z,3.10
2022-09-15T09:45:36.992Z,3.15
2022-09-15T09:48:18.606Z,3.15
2022-09-15T09:50:51.441Z,3.30
2022-09-15T09:53:31.077Z,4.18
2022-09-15T09:56:25.843Z,3.42
2022-09-15T10:01:30.962Z,3.30
2022-09-15T10:04:22.767Z,3.58
2022-09-15T10:06:56.341Z,3.22
2022-09-15T10:09:33.122Z,3.30
2022-09-15T10:12:07.375Z,2.80
2022-09-15T10:14:41.961Z,2.95
2022-09-15T10:17:37.445Z,3.97
2022-09-15T10:20:50.173Z,3.42
2022-09-15T10:23:31.319Z,2.80
2022-09-15T10:26:16.181Z,2.42
2022-09-15T10:29:17.472Z,2.85
2022-09-15T10:34:31.124Z,2.38
2022-09-15T10:37:32.333Z,2.10
2022-09-15T10:40:21.884Z,1.70
2022-09-15T10:43:04.617Z,1.33
2022-09-15T10:45:48.363Z,2.63
2022-09-15T10:48:26.844Z,1.52
2022-09-15T10:51:05.641Z,1.00
2022-09-15T10:53:53.633Z,1.17
2022-09-15T10:56:38.293Z,1.38
2022-09-15T10:59:24.915Z,1.23
2022-09-15T11:02:19.653Z,1.30
2022-09-15T11:07:58.730Z,1.75
2022-09-15T11:10:59.290Z,1.10
2022-09-15T11:13:53.279Z,0.90
2022-09-15T11:16:28.929Z,0.90
2022-09-15T11:19:17.304Z,1.00
2022-09-15T11:21:56.234Z,1.23
2022-09-15T11:24:51.505Z,1.05
2022-09-15T11:27:36.775Z,0.75
2022-09-15T11:30:45.661Z,0.90
2022-09-15T11:33:31.157Z,0.80
2022-09-15T11:36:14.472Z,0.82
2022-09-15T11:38:59.197Z,0.68
2022-09-15T11:41:36.227Z,0.90
2022-09-15T11:44:34.737Z,0.77
2022-09-15T11:47:11.539Z,0.68
2022-09-15T11:49:58.320Z,0.82
2022-09-15T11:52:46.636Z,0.73
2022-09-15T11:55:25.029Z,0.60
2022-09-15T11:58:21.810Z,0.43
2022-09-15T12:01:10.140Z,0.70
2022-09-15T12:04:08.460Z,0.40
2022-09-15T12:09:33.293Z,0.63
2022-09-15T12:12:12.230Z,0.68
2022-09-15T12:14:46.899Z,0.60
2022-09-15T12:17:45.341Z,0.22
2022-09-15T12:20:24.167Z,0.70
2022-09-15T12:23:21.835Z,0.63
2022-09-15T12:26:04.106Z,0.40
2022-09-15T12:28:39.902Z,0.40
2022-09-15T12:31:25.493Z,0.45
2022-09-15T12:33:57.937Z,0.63
2022-09-15T12:36:35.049Z,0.50
2022-09-15T12:39:28.638Z,0.60
2022-09-15T12:42:00.957Z,0.60
2022-09-15T12:44:42.243Z,0.88
2022-09-15T12:47:23.435Z,0.60
2022-09-15T12:50:18.151Z,1.55
2022-09-15T12:52:59.901Z,0.45
2022-09-15T12:58:15.812Z,0.73
2022-09-15T13:01:14.329Z,0.70
2022-09-15T13:06:24.135Z,0.55
2022-09-15T13:09:03.123Z,1.05
2022-09-15T13:11:38.248Z,0.63
2022-09-15T13:17:16.534Z,0.80
2022-09-15T13:19:53.226Z,0.60
2022-09-15T13:22:48.671Z,0.85
2022-09-15T13:25:29.161Z,0.70
2022-09-15T13:28:02.842Z,0.60
2022-09-15T13:31:04.212Z,1.17
2022-09-15T13:40:33.784Z,0.57
2022-09-15T13:43:29.293Z,1.10
2022-09-15T13:46:12.527Z,0.75
2022-09-15T13:49:22.588Z,0.90
2022-09-15T13:52:07.408Z,0.60
2022-09-15T13:55:15.428Z,0.70
2022-09-15T14:00:55.165Z,0.80
2022-09-15T14:03:39.827Z,0.73
2022-09-15T14:06:21.063Z,0.90
2022-09-15T14:08:58.632Z,0.90
2022-09-15T14:11:33.549Z,1.10
2022-09-15T14:14:11.500Z,0.73
2022-09-15T14:16:49.612Z,0.50
2022-09-15T14:19:36.765Z,0.88
2022-09-15T14:22:18.737Z,0.40
2022-09-15T14:24:51.285Z,0.70
2022-09-15T14:27:33.755Z,0.80
2022-09-15T14:30:09.020Z,0.77
2022-09-15T14:32:45.647Z,0.60
2022-09-15T14:35:23.335Z,0.77
2022-09-15T14:37:58.946Z,0.70
2022-09-15T14:40:36.070Z,0.82
2022-09-15T14:43:30.783Z,0.60
2022-09-15T14:46:14.675Z,0.70
2022-09-15T14:48:47.261Z,0.70
2022-09-15T14:51:24.914Z,1.02
2022-09-15T14:54:00.195Z,0.80
2022-09-15T14:56:41.145Z,0.60
2022-09-15T14:59:25.144Z,0.88
2022-09-15T15:02:18.618Z,0.70
2022-09-15T15:05:08.605Z,0.85
2022-09-15T15:07:42.376Z,0.82
2022-09-15T15:10:32.183Z,1.08
2022-09-15T15:13:12.902Z,0.70
2022-09-15T15:15:46.301Z,0.50
2022-09-15T15:18:32.196Z,0.60
2022-09-15T15:21:06.501Z,0.80
2022-09-15T15:23:46.879Z,0.90
2022-09-15T15:26:37.995Z,0.60
2022-09-15T15:29:38.868Z,0.68
2022-09-15T15:32:22.243Z,1.02
2022-09-15T15:34:59.708Z,0.60
2022-09-15T15:37:34.514Z,0.70
2022-09-15T15:40:17.211Z,0.60
2022-09-15T15:43:05.799Z,0.60
2022-09-15T15:45:50.125Z,0.70
2022-09-15T15:48:22.683Z,0.90
2022-09-15T15:50:56.243Z,0.82
2022-09-15T15:53:31.461Z,0.70
2022-09-15T15:56:04.701Z,0.80
2022-09-15T15:58:37.111Z,0.80
2022-09-15T16:01:11.528Z,0.63
2022-09-15T16:03:43.902Z,0.70
2022-09-15T16:06:16.362Z,1.10
2022-09-15T16:08:49.537Z,0.77
2022-09-15T16:11:22.089Z,1.05
2022-09-15T16:13:54.461Z,0.60
2022-09-15T16:16:27.282Z,0.93
2022-09-15T16:18:59.909Z,1.00
2022-09-15T16:21:43.045Z,1.08
2022-09-15T16:24:16.225Z,0.57
2022-09-15T16:26:53.592Z,0.90
2022-09-15T16:29:29.937Z,0.88
2022-09-15T16:32:04.428Z,0.82
2022-09-15T16:34:36.875Z,0.70
2022-09-15T16:37:10.465Z,0.90
2022-09-15T16:39:42.951Z,0.70
2022-09-15T16:42:15.440Z,0.60
2022-09-15T16:44:47.860Z,0.60
2022-09-15T16:47:20.538Z,0.88
2022-09-15T16:49:53.051Z,0.80
2022-09-15T16:52:25.567Z,0.73
2022-09-15T16:55:00.910Z,0.90
2022-09-15T16:57:33.342Z,0.77
2022-09-15T17:00:06.200Z,0.90
2022-09-15T17:02:38.826Z,0.80
2022-09-15T17:05:34.734Z,0.70
2022-09-15T17:08:09.774Z,0.73
2022-09-15T17:10:42.640Z,1.15
2022-09-15T17:13:18.280Z,0.52
2022-09-15T17:18:27.362Z,0.73
2022-09-15T17:20:59.835Z,0.60
2022-09-15T17:23:38.315Z,0.73
2022-09-15T17:26:14.826Z,0.85
2022-09-15T17:28:47.824Z,0.90
2022-09-15T17:31:23.676Z,1.30
2022-09-15T17:33:56.310Z,0.70
2022-09-15T17:36:28.688Z,1.33
2022-09-15T17:39:01.179Z,1.10
2022-09-15T17:41:33.662Z,0.93
2022-09-15T17:44:11.353Z,0.70
2022-09-15T17:46:43.882Z,1.65
2022-09-15T17:49:16.308Z,0.82
2022-09-15T17:51:48.865Z,0.82
2022-09-15T17:54:21.402Z,0.73
2022-09-15T17:56:54.100Z,0.50
2022-09-15T17:59:26.759Z,0.98
2022-09-15T18:01:59.661Z,0.98
2022-09-15T18:04:32.396Z,1.00
2022-09-15T18:07:09.256Z,0.98
2022-09-15T18:09:41.707Z,0.90
2022-09-15T18:12:14.561Z,0.88
2022-09-15T18:14:47.570Z,1.13
2022-09-15T18:17:20.316Z,0.50
2022-09-15T18:19:53.036Z,0.77
2022-09-15T18:22:25.677Z,0.70
2022-09-15T18:24:58.252Z,1.42
2022-09-15T18:27:30.775Z,0.88
2022-09-15T18:30:03.954Z,0.65
2022-09-15T18:32:36.520Z,1.35
2022-09-15T18:35:09.687Z,1.10
2022-09-15T18:37:43.044Z,0.70
2022-09-15T18:40:17.585Z,0.70
2022-09-15T18:42:50.602Z,0.65
2022-09-15T18:45:23.218Z,0.80
2022-09-15T18:47:55.834Z,0.60
2022-09-15T18:50:28.452Z,0.90
2022-09-15T18:53:01.207Z,1.00
2022-09-15T18:55:33.678Z,0.90
2022-09-15T18:58:06.274Z,1.10
2022-09-15T19:00:39.320Z,2.83
2022-09-15T19:03:14.085Z,2.17
2022-09-15T19:05:46.778Z,1.55
2022-09-15T19:08:19.585Z,1.38
2022-09-15T19:10:59.454Z,0.90
2022-09-15T19:13:32.410Z,1.40
2022-09-15T19:16:06.747Z,1.35
2022-09-15T19:18:39.419Z,1.25
2022-09-15T19:21:12.138Z,0.93
2022-09-15T19:23:45.231Z,1.70
2022-09-15T19:26:17.811Z,1.27
2022-09-15T19:28:50.962Z,0.90
2022-09-15T19:31:25.290Z,0.70
2022-09-15T19:33:57.986Z,0.88
2022-09-15T19:36:31.675Z,0.85
2022-09-15T19:39:04.610Z,0.70
2022-09-15T19:41:37.250Z,1.05
2022-09-15T19:44:10.856Z,0.68
2022-09-15T19:46:43.824Z,0.77
2022-09-15T19:49:16.786Z,0.75
2022-09-15T19:51:55.271Z,0.63
2022-09-15T19:54:29.901Z,0.52
2022-09-15T19:57:02.750Z,0.70
2022-09-15T19:59:35.517Z,1.50
2022-09-15T20:02:10.225Z,0.60
2022-09-15T20:04:42.852Z,0.82
2022-09-15T20:07:15.542Z,0.80
2022-09-15T20:09:48.302Z,0.50
2022-09-15T20:14:53.365Z,1.20
2022-09-15T20:17:25.995Z,1.35
2022-09-15T20:19:58.512Z,0.60
2022-09-15T20:22:31.103Z,1.25
2022-09-15T20:25:04.299Z,0.63
2022-09-15T20:27:37.202Z,1.00
2022-09-15T20:30:10.503Z,0.93
2022-09-15T20:32:43.387Z,0.80
2022-09-15T20:35:16.133Z,0.60
2022-09-15T20:37:49.526Z,1.05
2022-09-15T20:40:22.247Z,0.88
2022-09-15T20:42:54.856Z,0.88
2022-09-15T20:45:27.680Z,0.90
2022-09-15T20:48:00.449Z,1.10
2022-09-15T20:50:33.276Z,1.27
2022-09-15T20:53:05.794Z,1.30
2022-09-15T20:55:38.342Z,1.10
2022-09-15T20:58:10.989Z,1.05
2022-09-15T21:00:43.641Z,0.98
2022-09-15T21:03:16.566Z,0.82
2022-09-15T21:05:49.146Z,1.98
2022-09-15T21:08:21.848Z,0.80
2022-09-15T21:10:55.237Z,0.88
2022-09-15T21:13:29.947Z,2.08
2022-09-15T21:16:05.974Z,1.35
2022-09-15T21:18:39.910Z,0.75
2022-09-15T21:21:14.639Z,0.90
2022-09-15T21:23:49.575Z,0.65
2022-09-15T21:26:25.018Z,0.70
2022-09-15T21:28:57.985Z,0.98
2022-09-15T21:31:35.844Z,0.80
2022-09-15T21:34:08.629Z,0.75
2022-09-15T21:36:41.176Z,1.30
2022-09-15T21:39:13.837Z,0.90
2022-09-15T21:41:46.546Z,0.90
2022-09-15T21:44:19.229Z,1.05
2022-09-15T21:46:52.863Z,1.20
2022-09-15T21:49:25.418Z,1.00
2022-09-15T21:51:58.213Z,1.08
2022-09-15T21:54:31.609Z,1.15
2022-09-15T21:57:04.167Z,1.08
2022-09-15T21:59:36.745Z,1.10
2022-09-15T22:02:10.153Z,0.95
2022-09-15T22:04:42.769Z,1.00
2022-09-15T22:07:18.818Z,0.98
2022-09-15T22:09:51.527Z,1.25
2022-09-15T22:12:27.114Z,0.98
2022-09-15T22:14:59.622Z,1.20
2022-09-15T22:17:32.277Z,1.00
2022-09-15T22:20:07.927Z,1.05
2022-09-15T22:22:40.756Z,1.27
2022-09-15T22:25:13.389Z,0.95
2022-09-15T22:27:45.863Z,1.25
2022-09-15T22:30:18.733Z,1.10
2022-09-15T22:32:52.351Z,1.33
2022-09-15T22:35:25.148Z,1.27
2022-09-15T22:37:57.837Z,1.15
2022-09-15T22:40:31.113Z,1.45
2022-09-15T22:43:03.754Z,1.33
2022-09-15T22:45:36.317Z,1.42
2022-09-15T22:48:08.883Z,1.17
2022-09-15T22:50:45.637Z,1.20
2022-09-15T22:53:18.288Z,1.42
2022-09-15T22:55:51.743Z,1.17
2022-09-15T22:58:24.364Z,1.00
2022-09-15T23:01:24.654Z,1.20
2022-09-15T23:03:59.886Z,1.10
2022-09-15T23:06:34.439Z,1.05
2022-09-15T23:09:09.392Z,1.20
2022-09-15T23:11:42.375Z,0.98
2022-09-15T23:14:19.931Z,1.90
2022-09-15T23:16:52.485Z,1.20
2022-09-15T23:19:25.322Z,1.30
2022-09-15T23:21:57.995Z,1.23
2022-09-15T23:24:31.796Z,1.15
2022-09-15T23:27:04.680Z,1.08
2022-09-15T23:29:37.240Z,1.10
2022-09-15T23:32:09.866Z,1.33
2022-09-15T23:34:42.511Z,1.20
2022-09-15T23:37:15.134Z,1.48
2022-09-15T23:39:47.889Z,1.88
2022-09-15T23:42:20.585Z,1.60
2022-09-15T23:44:53.186Z,1.33
2022-09-15T23:47:25.844Z,1.00
2022-09-15T23:50:00.452Z,1.00
2022-09-15T23:52:33.219Z,1.25
2022-09-15T23:55:06.316Z,0.70
2022-09-15T23:57:38.924Z,0.90
